createdAt,value
2023-07-01T00:00:48.461Z,63.82
2023-07-01T00:01:48.336Z,64.05
2023-07-01T00:02:48.138Z,64.07
2023-07-01T00:03:48.114Z,64.25
2023-07-01T00:04:48.139Z,64.03
2023-07-01T00:05:48.078Z,64.25
2023-07-01T00:06:48.064Z,64.14
2023-07-01T00:07:48.048Z,64.32
2023-07-01T00:08:48.061Z,64.39
2023-07-01T00:09:48.029Z,64.26
2023-07-01T00:10:48.353Z,64.33
2023-07-01T00:11:48.023Z,64.84
2023-07-01T00:12:47.999Z,64.36
2023-07-01T00:13:47.990Z,64.22
2023-07-01T00:14:47.975Z,64.27
2023-07-01T00:15:47.960Z,64.33
2023-07-01T00:16:48.059Z,64.38
2023-07-01T00:17:47.950Z,64.40
2023-07-01T00:18:47.993Z,64.33
2023-07-01T00:19:47.931Z,64.28
2023-07-01T00:20:48.219Z,64.26
2023-07-01T00:21:47.961Z,64.38
2023-07-01T00:22:47.885Z,64.43
2023-07-01T00:23:47.887Z,64.47
2023-07-01T00:24:47.883Z,64.57
2023-07-01T00:25:47.875Z,64.59
2023-07-01T00:26:47.858Z,64.63
2023-07-01T00:27:47.826Z,64.62
2023-07-01T00:28:47.828Z,65.11
2023-07-01T00:29:47.812Z,64.60
2023-07-01T00:30:48.147Z,64.59
2023-07-01T00:31:47.945Z,64.74
2023-07-01T00:32:47.852Z,64.52
2023-07-01T00:33:47.784Z,64.63
2023-07-01T00:34:47.777Z,64.76
2023-07-01T00:35:47.746Z,64.71
2023-07-01T00:36:47.731Z,64.81
2023-07-01T00:37:47.777Z,64.73
2023-07-01T00:38:47.716Z,64.86
2023-07-01T00:39:47.736Z,64.55
2023-07-01T00:40:48.084Z,64.56
2023-07-01T00:41:47.682Z,64.71
2023-07-01T00:42:47.685Z,64.85
2023-07-01T00:43:47.805Z,64.89
2023-07-01T00:44:47.654Z,64.85
2023-07-01T00:45:47.718Z,64.58
2023-07-01T00:46:47.629Z,64.74
2023-07-01T00:47:47.693Z,64.59
2023-07-01T00:48:47.608Z,64.72
2023-07-01T00:49:47.609Z,64.79
2023-07-01T00:50:47.824Z,64.86
2023-07-01T00:51:47.573Z,64.88
2023-07-01T00:52:47.567Z,64.71
2023-07-01T00:53:47.576Z,64.74
2023-07-01T00:54:47.574Z,64.84
2023-07-01T00:55:47.546Z,64.85
2023-07-01T00:56:47.594Z,64.88
2023-07-01T00:57:47.547Z,64.96
2023-07-01T00:58:47.496Z,64.78
2023-07-01T00:59:47.486Z,64.76
2023-07-01T01:00:47.697Z,64.67
2023-07-01T01:01:47.529Z,64.64
2023-07-01T01:02:47.560Z,64.74
2023-07-01T01:03:47.530Z,65.11
2023-07-01T01:04:47.574Z,64.68
2023-07-01T01:05:47.422Z,64.75
2023-07-01T01:06:47.475Z,64.78
2023-07-01T01:07:47.433Z,64.76
2023-07-01T01:08:47.416Z,64.79
2023-07-01T01:09:47.388Z,64.87
2023-07-01T01:10:47.725Z,64.92
2023-07-01T01:11:47.457Z,64.92
2023-07-01T01:12:47.352Z,64.93
2023-07-01T01:13:47.352Z,64.97
2023-07-01T01:14:47.335Z,64.95
2023-07-01T01:15:47.351Z,65.13
2023-07-01T01:16:47.394Z,64.81
2023-07-01T01:17:47.323Z,64.84
2023-07-01T01:18:47.317Z,65.03
2023-07-01T01:19:47.315Z,64.98
2023-07-01T01:20:47.629Z,65.14
2023-07-01T01:21:47.280Z,65.00
2023-07-01T01:22:55.361Z,65.15
2023-07-01T01:23:47.283Z,64.99
2023-07-01T01:24:47.259Z,64.99
2023-07-01T01:25:47.223Z,64.74
2023-07-01T01:26:47.204Z,64.86
2023-07-01T01:27:47.206Z,64.87
2023-07-01T01:28:47.234Z,65.01
2023-07-01T01:29:47.198Z,65.16
2023-07-01T01:30:47.414Z,65.21
2023-07-01T01:31:47.189Z,65.27
2023-07-01T01:32:47.244Z,65.26
2023-07-01T01:33:47.149Z,65.24
2023-07-01T01:34:47.154Z,65.27
2023-07-01T01:35:47.112Z,65.38
2023-07-01T01:36:47.109Z,65.46
2023-07-01T01:37:47.110Z,65.43
2023-07-01T01:38:47.088Z,65.49
2023-07-01T01:39:47.077Z,65.32
2023-07-01T01:40:47.394Z,65.26
2023-07-01T01:41:47.053Z,65.38
2023-07-01T01:42:47.072Z,65.69
2023-07-01T01:43:47.033Z,65.46
2023-07-01T01:44:47.028Z,65.40
2023-07-01T01:45:47.010Z,65.34
2023-07-01T01:46:47.022Z,65.38
2023-07-01T01:47:47.038Z,65.34
2023-07-01T01:48:46.981Z,65.21
2023-07-01T01:49:46.975Z,65.38
2023-07-01T01:50:47.171Z,65.42
2023-07-01T01:51:46.958Z,65.39
2023-07-01T01:52:46.946Z,65.40
2023-07-01T01:53:47.004Z,65.43
2023-07-01T01:54:46.914Z,65.42
2023-07-01T01:55:46.925Z,66.00
2023-07-01T01:56:46.898Z,65.43
2023-07-01T01:57:46.990Z,65.66
2023-07-01T01:58:46.871Z,65.40
2023-07-01T01:59:46.889Z,65.37
2023-07-01T02:00:47.061Z,65.47
2023-07-01T02:01:46.856Z,65.48
2023-07-01T02:02:46.927Z,65.37
2023-07-01T02:03:46.979Z,65.27
2023-07-01T02:04:47.097Z,65.32
2023-07-01T02:05:46.892Z,65.36
2023-07-01T02:06:46.840Z,65.31
2023-07-01T02:07:46.882Z,65.34
2023-07-01T02:08:46.773Z,65.44
2023-07-01T02:09:46.765Z,65.79
2023-07-01T02:10:47.005Z,65.28
2023-07-01T02:11:46.756Z,65.34
2023-07-01T02:12:46.731Z,65.35
2023-07-01T02:13:46.760Z,65.21
2023-07-01T02:14:46.706Z,65.39
2023-07-01T02:15:46.706Z,65.47
2023-07-01T02:16:46.765Z,65.53
2023-07-01T02:17:46.709Z,65.49
2023-07-01T02:18:46.660Z,65.67
2023-07-01T02:19:46.665Z,65.73
2023-07-01T02:20:47.112Z,65.74
2023-07-01T02:21:46.624Z,65.73
2023-07-01T02:22:46.650Z,65.76
2023-07-01T02:23:46.626Z,65.89
2023-07-01T02:24:46.603Z,66.04
2023-07-01T02:25:46.599Z,65.97
2023-07-01T02:26:46.570Z,65.96
2023-07-01T02:27:46.570Z,65.86
2023-07-01T02:28:46.599Z,65.87
2023-07-01T02:29:46.548Z,65.90
2023-07-01T02:30:46.780Z,65.97
2023-07-01T02:31:46.529Z,66.03
2023-07-01T02:32:46.596Z,65.99
2023-07-01T02:33:46.533Z,65.96
2023-07-01T02:34:46.515Z,65.89
2023-07-01T02:35:46.490Z,65.93
2023-07-01T02:36:46.467Z,65.95
2023-07-01T02:37:46.476Z,66.09
2023-07-01T02:38:46.479Z,65.96
2023-07-01T02:39:46.460Z,66.27
2023-07-01T02:40:46.696Z,65.96
2023-07-01T02:41:46.462Z,65.87
2023-07-01T02:42:46.446Z,65.97
2023-07-01T02:43:46.393Z,65.90
2023-07-01T02:44:46.390Z,65.63
2023-07-01T02:45:46.398Z,65.64
2023-07-01T02:46:46.426Z,65.52
2023-07-01T02:47:46.399Z,65.44
2023-07-01T02:48:46.371Z,66.02
2023-07-01T02:49:48.429Z,65.81
2023-07-01T02:50:46.510Z,65.68
2023-07-01T02:51:46.320Z,65.26
2023-07-01T02:52:46.308Z,65.42
2023-07-01T02:53:46.315Z,65.43
2023-07-01T02:54:46.309Z,65.27
2023-07-01T02:55:46.276Z,65.29
2023-07-01T02:56:46.262Z,65.10
2023-07-01T02:57:46.261Z,65.17
2023-07-01T02:58:46.242Z,65.32
2023-07-01T02:59:46.233Z,65.27
2023-07-01T03:00:46.705Z,65.18
2023-07-01T03:01:48.207Z,65.25
2023-07-01T03:02:46.275Z,65.19
2023-07-01T03:03:46.323Z,65.09
2023-07-01T03:04:46.225Z,64.99
2023-07-01T03:05:46.173Z,65.07
2023-07-01T03:06:46.158Z,65.15
2023-07-01T03:07:46.160Z,65.14
2023-07-01T03:08:46.161Z,65.06
2023-07-01T03:09:46.139Z,65.09
2023-07-01T03:10:46.357Z,65.02
2023-07-01T03:11:46.123Z,65.10
2023-07-01T03:12:46.093Z,65.68
2023-07-01T03:13:46.088Z,65.34
2023-07-01T03:14:46.080Z,65.05
2023-07-01T03:15:46.093Z,65.06
2023-07-01T03:16:46.167Z,65.23
2023-07-01T03:17:46.136Z,65.30
2023-07-01T03:18:46.047Z,65.31
2023-07-01T03:19:46.032Z,65.29
2023-07-01T03:20:46.283Z,65.26
2023-07-01T03:21:45.996Z,65.22
2023-07-01T03:22:46.015Z,65.29
2023-07-01T03:23:45.976Z,65.21
2023-07-01T03:24:45.967Z,65.07
2023-07-01T03:25:45.958Z,65.20
2023-07-01T03:26:45.943Z,65.11
2023-07-01T03:27:45.964Z,65.10
2023-07-01T03:28:45.926Z,65.11
2023-07-01T03:29:45.915Z,65.11
2023-07-01T03:30:46.150Z,65.10
2023-07-01T03:31:45.927Z,65.11
2023-07-01T03:32:45.986Z,65.20
2023-07-01T03:33:45.875Z,65.07
2023-07-01T03:34:45.871Z,65.19
2023-07-01T03:35:45.874Z,65.22
2023-07-01T03:36:45.856Z,65.61
2023-07-01T03:37:45.845Z,65.04
2023-07-01T03:38:45.824Z,65.08
2023-07-01T03:39:45.819Z,64.90
2023-07-01T03:40:46.049Z,64.95
2023-07-01T03:41:45.837Z,64.95
2023-07-01T03:42:45.854Z,64.88
2023-07-01T03:43:45.774Z,65.01
2023-07-01T03:44:45.786Z,65.02
2023-07-01T03:45:45.822Z,65.03
2023-07-01T03:46:45.734Z,66.12
2023-07-01T03:47:45.943Z,64.98
2023-07-01T03:48:45.720Z,64.96
2023-07-01T03:49:45.728Z,64.94
2023-07-01T03:50:46.052Z,65.14
2023-07-01T03:51:45.718Z,64.62
2023-07-01T03:52:45.685Z,64.64
2023-07-01T03:53:45.664Z,64.65
2023-07-01T03:54:45.651Z,64.58
2023-07-01T03:55:45.686Z,64.68
2023-07-01T03:56:45.661Z,64.54
2023-07-01T03:57:45.629Z,64.48
2023-07-01T03:58:45.603Z,64.64
2023-07-01T03:59:45.608Z,64.74
2023-07-01T04:00:45.895Z,64.70
2023-07-01T04:01:45.616Z,64.85
2023-07-01T04:02:45.601Z,64.62
2023-07-01T04:03:45.641Z,64.68
2023-07-01T04:04:45.621Z,64.43
2023-07-01T04:05:45.565Z,64.42
2023-07-01T04:06:45.536Z,64.46
2023-07-01T04:07:45.533Z,64.56
2023-07-01T04:08:45.507Z,64.47
2023-07-01T04:09:45.488Z,64.60
2023-07-01T04:10:45.896Z,64.28
2023-07-01T04:11:45.525Z,64.35
2023-07-01T04:12:45.473Z,64.39
2023-07-01T04:13:45.489Z,64.41
2023-07-01T04:14:45.441Z,64.51
2023-07-01T04:15:45.428Z,64.70
2023-07-01T04:16:45.521Z,64.37
2023-07-01T04:17:45.451Z,64.32
2023-07-01T04:18:45.405Z,64.13
2023-07-01T04:19:45.411Z,64.32
2023-07-01T04:20:45.764Z,64.22
2023-07-01T04:21:45.364Z,63.94
2023-07-01T04:22:45.361Z,63.98
2023-07-01T04:23:45.376Z,63.93
2023-07-01T04:24:45.373Z,64.00
2023-07-01T04:25:45.322Z,64.08
2023-07-01T04:26:45.319Z,64.24
2023-07-01T04:27:45.309Z,64.25
2023-07-01T04:28:45.302Z,63.97
2023-07-01T04:29:45.281Z,63.96
2023-07-01T04:30:45.748Z,63.98
2023-07-01T04:31:45.266Z,63.96
2023-07-01T04:32:45.282Z,63.80
2023-07-01T04:33:45.245Z,63.85
2023-07-01T04:34:45.231Z,64.22
2023-07-01T04:35:45.224Z,63.74
2023-07-01T04:36:45.227Z,63.92
2023-07-01T04:37:45.229Z,63.84
2023-07-01T04:38:45.187Z,63.84
2023-07-01T04:39:45.179Z,63.97
2023-07-01T04:40:45.318Z,64.11
2023-07-01T04:41:45.168Z,64.01
2023-07-01T04:42:45.157Z,63.79
2023-07-01T04:43:45.136Z,63.96
2023-07-01T04:44:45.121Z,63.97
2023-07-01T04:45:45.128Z,63.93
2023-07-01T04:46:45.153Z,64.02
2023-07-01T04:47:45.241Z,64.19
2023-07-01T04:48:45.085Z,64.08
2023-07-01T04:49:45.069Z,63.84
2023-07-01T04:50:45.443Z,64.01
2023-07-01T04:51:45.072Z,63.71
2023-07-01T04:52:45.351Z,63.98
2023-07-01T04:53:45.024Z,64.09
2023-07-01T04:54:45.023Z,64.01
2023-07-01T04:55:45.023Z,63.92
2023-07-01T04:56:44.993Z,64.07
2023-07-01T04:57:45.017Z,64.07
2023-07-01T04:58:44.992Z,64.19
2023-07-01T04:59:44.973Z,64.54
2023-07-01T05:00:45.244Z,63.93
2023-07-01T05:01:45.019Z,63.95
2023-07-01T05:02:45.106Z,64.23
2023-07-01T05:03:44.979Z,63.93
2023-07-01T05:04:44.998Z,63.87
2023-07-01T05:05:44.899Z,63.74
2023-07-01T05:06:44.888Z,63.56
2023-07-01T05:07:44.925Z,63.62
2023-07-01T05:08:44.896Z,63.88
2023-07-01T05:09:44.865Z,63.81
2023-07-01T05:10:45.185Z,63.97
2023-07-01T05:11:44.842Z,64.03
2023-07-01T05:12:44.830Z,64.01
2023-07-01T05:13:44.822Z,63.74
2023-07-01T05:14:44.827Z,63.79
2023-07-01T05:15:44.829Z,63.78
2023-07-01T05:16:44.806Z,64.14
2023-07-01T05:17:44.814Z,63.80
2023-07-01T05:18:44.762Z,64.02
2023-07-01T05:19:44.749Z,64.63
2023-07-01T05:20:45.681Z,63.93
2023-07-01T05:21:44.766Z,63.62
2023-07-01T05:22:44.724Z,63.17
2023-07-01T05:23:44.708Z,63.37
2023-07-01T05:24:44.693Z,62.88
2023-07-01T05:25:44.680Z,62.93
2023-07-01T05:26:44.675Z,62.88
2023-07-01T05:27:44.692Z,62.75
2023-07-01T05:28:44.657Z,62.99
2023-07-01T05:29:44.656Z,62.82
2023-07-01T05:30:44.890Z,62.60
2023-07-01T05:31:44.625Z,62.44
2023-07-01T05:32:44.697Z,62.89
2023-07-01T05:33:44.593Z,62.52
2023-07-01T05:34:44.593Z,63.35
2023-07-01T05:35:44.579Z,62.65
2023-07-01T05:36:44.573Z,62.37
2023-07-01T05:37:44.562Z,62.43
2023-07-01T05:38:44.581Z,62.76
2023-07-01T05:39:44.536Z,62.51
2023-07-01T05:40:44.918Z,62.61
2023-07-01T05:41:44.528Z,62.77
2023-07-01T05:42:44.508Z,63.01
2023-07-01T05:43:44.536Z,62.90
2023-07-01T05:44:44.493Z,62.32
2023-07-01T05:45:44.474Z,62.62
2023-07-01T05:46:44.522Z,62.47
2023-07-01T05:47:44.490Z,62.90
2023-07-01T05:48:44.456Z,62.61
2023-07-01T05:49:44.466Z,62.31
2023-07-01T05:50:44.789Z,62.98
2023-07-01T05:51:44.415Z,63.03
2023-07-01T05:52:45.380Z,62.90
2023-07-01T05:53:44.443Z,63.19
2023-07-01T05:54:44.374Z,62.64
2023-07-01T05:55:44.368Z,62.64
2023-07-01T05:56:44.385Z,62.77
2023-07-01T05:57:44.363Z,63.28
2023-07-01T05:58:44.351Z,63.88
2023-07-01T05:59:44.354Z,64.54
2023-07-01T06:00:44.568Z,63.15
2023-07-01T06:01:44.340Z,63.90
2023-07-01T06:02:44.320Z,62.88
2023-07-01T06:03:44.331Z,62.80
2023-07-01T06:04:44.313Z,63.05
2023-07-01T06:05:44.284Z,63.48
2023-07-01T06:06:44.253Z,63.67
2023-07-01T06:07:44.237Z,62.87
2023-07-01T06:08:44.243Z,63.51
2023-07-01T06:09:44.224Z,63.63
2023-07-01T06:10:44.370Z,63.84
2023-07-01T06:11:44.201Z,63.05
2023-07-01T06:12:44.199Z,62.99
2023-07-01T06:13:44.205Z,62.85
2023-07-01T06:14:44.171Z,63.15
2023-07-01T06:15:44.175Z,63.64
2023-07-01T06:16:44.162Z,63.16
2023-07-01T06:17:44.267Z,63.47
2023-07-01T06:18:44.161Z,63.06
2023-07-01T06:19:44.122Z,63.19
2023-07-01T06:20:45.102Z,63.36
2023-07-01T06:21:44.117Z,63.23
2023-07-01T06:22:44.088Z,63.00
2023-07-01T06:23:44.079Z,63.02
2023-07-01T06:24:44.066Z,63.28
2023-07-01T06:25:44.063Z,63.20
2023-07-01T06:26:44.045Z,63.33
2023-07-01T06:27:44.052Z,62.94
2023-07-01T06:28:44.048Z,62.99
2023-07-01T06:29:44.039Z,63.22
2023-07-01T06:30:44.186Z,62.82
2023-07-01T06:31:44.127Z,63.10
2023-07-01T06:32:44.131Z,62.94
2023-07-01T06:33:44.008Z,62.81
2023-07-01T06:34:43.967Z,63.20
2023-07-01T06:35:43.949Z,63.01
2023-07-01T06:36:43.980Z,63.15
2023-07-01T06:37:43.936Z,63.69
2023-07-01T06:38:43.934Z,62.99
2023-07-01T06:39:43.915Z,63.24
2023-07-01T06:40:44.064Z,63.38
2023-07-01T06:41:43.881Z,63.55
2023-07-01T06:42:43.869Z,64.05
2023-07-01T06:43:43.862Z,64.13
2023-07-01T06:44:43.888Z,63.67
2023-07-01T06:45:43.897Z,63.90
2023-07-01T06:46:43.867Z,63.73
2023-07-01T06:47:43.869Z,64.32
2023-07-01T06:48:43.811Z,63.99
2023-07-01T06:49:43.790Z,64.10
2023-07-01T06:50:43.812Z,64.48
2023-07-01T06:51:43.792Z,64.38
2023-07-01T06:52:43.788Z,64.31
2023-07-01T06:53:43.769Z,64.62
2023-07-01T06:54:43.739Z,64.55
2023-07-01T06:55:43.753Z,64.71
2023-07-01T06:56:43.729Z,64.75
2023-07-01T06:57:43.720Z,64.81
2023-07-01T06:58:43.711Z,64.90
2023-07-01T06:59:43.717Z,65.15
2023-07-01T07:00:43.708Z,65.75
2023-07-01T07:01:43.846Z,65.18
2023-07-01T07:02:43.699Z,65.11
2023-07-01T07:03:43.712Z,64.77
2023-07-01T07:04:43.731Z,65.10
2023-07-01T07:05:43.711Z,65.34
2023-07-01T07:06:43.628Z,65.36
2023-07-01T07:07:43.619Z,65.77
2023-07-01T07:08:43.633Z,65.91
2023-07-01T07:09:43.587Z,66.12
2023-07-01T07:10:43.664Z,65.96
2023-07-01T07:11:43.556Z,66.02
2023-07-01T07:12:43.567Z,66.16
2023-07-01T07:13:43.544Z,66.54
2023-07-01T07:14:43.546Z,66.17
2023-07-01T07:15:43.692Z,66.79
2023-07-01T07:16:43.567Z,66.89
2023-07-01T07:17:43.585Z,66.76
2023-07-01T07:18:43.656Z,67.04
2023-07-01T07:19:43.460Z,67.29
2023-07-01T07:20:43.645Z,67.88
2023-07-01T07:21:43.467Z,68.06
2023-07-01T07:22:43.454Z,67.57
2023-07-01T07:23:43.436Z,67.80
2023-07-01T07:24:43.421Z,67.94
2023-07-01T07:25:43.401Z,67.73
2023-07-01T07:26:43.495Z,67.55
2023-07-01T07:27:43.381Z,68.01
2023-07-01T07:28:43.384Z,67.96
2023-07-01T07:29:43.390Z,67.81
2023-07-01T07:30:43.380Z,67.95
2023-07-01T07:31:43.422Z,68.43
2023-07-01T07:32:43.424Z,68.60
2023-07-01T07:33:43.334Z,68.43
2023-07-01T07:34:43.325Z,68.35
2023-07-01T07:35:43.302Z,68.09
2023-07-01T07:36:43.282Z,68.37
2023-07-01T07:37:43.263Z,68.46
2023-07-01T07:38:43.299Z,68.55
2023-07-01T07:39:43.265Z,68.53
2023-07-01T07:40:43.274Z,68.79
2023-07-01T07:41:43.248Z,68.87
2023-07-01T07:42:43.259Z,68.99
2023-07-01T07:43:43.228Z,69.20
2023-07-01T07:44:43.206Z,69.33
2023-07-01T07:45:43.205Z,69.38
2023-07-01T07:46:43.228Z,69.47
2023-07-01T07:47:43.196Z,69.45
2023-07-01T07:48:43.191Z,69.50
2023-07-01T07:49:43.171Z,69.61
2023-07-01T07:50:43.151Z,69.54
2023-07-01T07:51:43.154Z,69.86
2023-07-01T07:52:43.180Z,69.50
2023-07-01T07:53:43.118Z,69.64
2023-07-01T07:54:43.119Z,70.08
2023-07-01T07:55:43.101Z,70.35
2023-07-01T07:56:43.074Z,70.27
2023-07-01T07:57:43.070Z,70.24
2023-07-01T07:58:43.094Z,70.59
2023-07-01T07:59:43.080Z,70.58
2023-07-01T08:00:43.043Z,70.74
2023-07-01T08:01:43.088Z,71.17
2023-07-01T08:02:43.008Z,71.09
2023-07-01T08:03:43.129Z,71.03
2023-07-01T08:04:43.108Z,71.82
2023-07-01T08:05:43.014Z,71.62
2023-07-01T08:06:42.978Z,71.35
2023-07-01T08:07:42.959Z,71.20
2023-07-01T08:08:42.960Z,71.70
2023-07-01T08:09:42.964Z,71.51
2023-07-01T08:10:42.925Z,71.96
2023-07-01T08:11:42.963Z,71.86
2023-07-01T08:12:42.929Z,71.71
2023-07-01T08:13:42.890Z,71.82
2023-07-01T08:14:42.881Z,72.29
2023-07-01T08:15:42.869Z,72.82
2023-07-01T08:16:43.004Z,72.93
2023-07-01T08:17:42.945Z,72.79
2023-07-01T08:18:42.881Z,72.98
2023-07-01T08:19:42.840Z,73.21
2023-07-01T08:20:42.818Z,73.15
2023-07-01T08:21:42.803Z,73.04
2023-07-01T08:22:42.803Z,73.41
2023-07-01T08:23:42.841Z,73.16
2023-07-01T08:24:42.811Z,73.00
2023-07-01T08:25:42.776Z,72.95
2023-07-01T08:26:42.761Z,73.19
2023-07-01T08:27:42.751Z,72.95
2023-07-01T08:28:42.728Z,73.19
2023-07-01T08:29:42.763Z,73.14
2023-07-01T08:30:42.762Z,72.79
2023-07-01T08:31:42.729Z,73.14
2023-07-01T08:32:42.830Z,73.26
2023-07-01T08:33:42.696Z,73.45
2023-07-01T08:34:42.688Z,73.80
2023-07-01T08:35:42.671Z,74.10
2023-07-01T08:36:42.674Z,74.37
2023-07-01T08:37:42.657Z,74.52
2023-07-01T08:38:42.650Z,74.77
2023-07-01T08:39:42.635Z,74.79
2023-07-01T08:40:42.648Z,74.63
2023-07-01T08:41:42.624Z,75.01
2023-07-01T08:42:42.587Z,74.87
2023-07-01T08:43:42.577Z,74.57
2023-07-01T08:44:42.571Z,74.81
2023-07-01T08:45:42.558Z,75.09
2023-07-01T08:46:42.645Z,74.87
2023-07-01T08:47:42.644Z,74.72
2023-07-01T08:48:42.558Z,74.62
2023-07-01T08:49:42.516Z,74.24
2023-07-01T08:50:42.512Z,74.36
2023-07-01T08:51:42.563Z,74.70
2023-07-01T08:52:42.517Z,74.41
2023-07-01T08:53:42.484Z,74.35
2023-07-01T08:54:42.470Z,74.40
2023-07-01T08:55:42.468Z,74.61
2023-07-01T08:56:42.457Z,74.80
2023-07-01T08:57:42.443Z,74.79
2023-07-01T08:58:42.460Z,74.59
2023-07-01T08:59:42.452Z,75.04
2023-07-01T09:00:42.412Z,75.15
2023-07-01T09:01:42.495Z,75.31
2023-07-01T09:02:42.532Z,75.52
2023-07-01T09:03:42.451Z,75.77
2023-07-01T09:04:42.387Z,76.10
2023-07-01T09:05:42.375Z,76.49
2023-07-01T09:06:42.468Z,76.16
2023-07-01T09:07:42.337Z,76.27
2023-07-01T09:08:42.370Z,76.58
2023-07-01T09:09:42.321Z,76.90
2023-07-01T09:10:42.312Z,76.44
2023-07-01T09:11:42.291Z,76.32
2023-07-01T09:12:42.302Z,76.47
2023-07-01T09:13:42.289Z,77.17
2023-07-01T09:14:42.255Z,77.47
2023-07-01T09:15:42.246Z,77.73
2023-07-01T09:16:42.392Z,78.03
2023-07-01T09:17:42.286Z,78.16
2023-07-01T09:18:42.320Z,78.40
2023-07-01T09:19:42.295Z,78.32
2023-07-01T09:20:42.196Z,77.99
2023-07-01T09:21:42.175Z,77.43
2023-07-01T09:22:42.179Z,77.35
2023-07-01T09:23:42.159Z,77.82
2023-07-01T09:24:42.172Z,78.07
2023-07-01T09:25:42.141Z,78.42
2023-07-01T09:26:42.146Z,78.69
2023-07-01T09:27:42.153Z,79.03
2023-07-01T09:28:42.111Z,79.40
2023-07-01T09:29:42.112Z,79.73
2023-07-01T09:30:42.100Z,79.82
2023-07-01T09:31:42.126Z,79.30
2023-07-01T09:32:42.109Z,79.24
2023-07-01T09:33:42.090Z,79.51
2023-07-01T09:34:42.057Z,79.36
2023-07-01T09:35:42.072Z,79.56
2023-07-01T09:36:42.025Z,79.30
2023-07-01T09:37:42.030Z,79.53
2023-07-01T09:38:42.021Z,79.52
2023-07-01T09:39:41.990Z,79.34
2023-07-01T09:40:42.054Z,79.13
2023-07-01T09:41:42.010Z,79.14
2023-07-01T09:42:41.976Z,78.93
2023-07-01T09:43:41.951Z,78.65
2023-07-01T09:44:41.938Z,78.81
2023-07-01T09:45:41.940Z,78.66
2023-07-01T09:46:41.912Z,78.96
2023-07-01T09:47:41.975Z,79.15
2023-07-01T09:48:41.905Z,78.90
2023-07-01T09:49:41.894Z,78.82
2023-07-01T09:50:42.122Z,79.06
2023-07-01T09:51:41.861Z,79.18
2023-07-01T09:52:41.862Z,79.17
2023-07-01T09:53:41.848Z,79.30
2023-07-01T09:54:41.824Z,79.09
2023-07-01T09:55:41.812Z,78.80
2023-07-01T09:56:41.838Z,78.81
2023-07-01T09:57:41.813Z,78.76
2023-07-01T09:58:41.780Z,78.94
2023-07-01T09:59:41.814Z,78.61
2023-07-01T10:00:41.763Z,78.51
2023-07-01T10:01:41.799Z,78.42
2023-07-01T10:02:42.088Z,78.40
2023-07-01T10:03:41.797Z,78.21
2023-07-01T10:04:41.792Z,78.48
2023-07-01T10:05:41.760Z,78.43
2023-07-01T10:06:41.709Z,78.60
2023-07-01T10:07:41.695Z,78.65
2023-07-01T10:08:41.678Z,78.33
2023-07-01T10:09:41.680Z,78.56
2023-07-01T10:10:41.718Z,78.21
2023-07-01T10:11:41.649Z,78.36
2023-07-01T10:12:41.656Z,78.24
2023-07-01T10:13:41.643Z,78.28
2023-07-01T10:14:41.612Z,77.97
2023-07-01T10:15:41.636Z,78.22
2023-07-01T10:16:41.621Z,77.92
2023-07-01T10:17:41.642Z,78.09
2023-07-01T10:18:41.602Z,78.66
2023-07-01T10:19:41.561Z,78.65
2023-07-01T10:20:41.559Z,79.30
2023-07-01T10:21:41.538Z,79.88
2023-07-01T10:22:41.532Z,80.17
2023-07-01T10:23:41.541Z,80.89
2023-07-01T10:24:41.528Z,80.52
2023-07-01T10:25:41.567Z,80.41
2023-07-01T10:26:41.516Z,80.45
2023-07-01T10:27:41.492Z,80.59
2023-07-01T10:28:41.557Z,80.63
2023-07-01T10:29:41.472Z,80.33
2023-07-01T10:30:41.478Z,80.22
2023-07-01T10:31:41.426Z,79.94
2023-07-01T10:32:41.530Z,79.82
2023-07-01T10:33:41.452Z,79.72
2023-07-01T10:34:41.421Z,80.21
2023-07-01T10:35:41.428Z,80.51
2023-07-01T10:36:41.413Z,80.78
2023-07-01T10:37:41.375Z,80.72
2023-07-01T10:38:41.372Z,80.89
2023-07-01T10:39:41.376Z,81.12
2023-07-01T10:40:41.364Z,80.56
2023-07-01T10:41:41.324Z,80.26
2023-07-01T10:42:41.362Z,80.37
2023-07-01T10:43:41.311Z,80.35
2023-07-01T10:44:41.289Z,80.58
2023-07-01T10:45:41.333Z,80.83
2023-07-01T10:46:41.341Z,81.03
2023-07-01T10:47:41.314Z,81.07
2023-07-01T10:48:41.258Z,81.31
2023-07-01T10:49:41.258Z,80.76
2023-07-01T10:50:41.233Z,80.93
2023-07-01T10:51:41.257Z,80.96
2023-07-01T10:52:41.216Z,80.59
2023-07-01T10:53:41.222Z,80.69
2023-07-01T10:54:41.198Z,80.54
2023-07-01T10:55:41.284Z,80.52
2023-07-01T10:56:41.257Z,80.58
2023-07-01T10:57:41.167Z,80.58
2023-07-01T10:58:41.153Z,80.63
2023-07-01T10:59:41.232Z,80.87
2023-07-01T11:00:41.157Z,81.04
2023-07-01T11:01:41.234Z,81.12
2023-07-01T11:02:41.308Z,81.00
2023-07-01T11:03:41.191Z,81.40
2023-07-01T11:04:41.109Z,82.45
2023-07-01T11:05:41.184Z,82.81
2023-07-01T11:06:41.065Z,83.39
2023-07-01T11:07:41.063Z,84.30
2023-07-01T11:08:41.039Z,84.24
2023-07-01T11:09:41.057Z,84.39
2023-07-01T11:10:41.041Z,84.40
2023-07-01T11:11:41.002Z,85.25
2023-07-01T11:12:41.093Z,85.87
2023-07-01T11:13:41.038Z,85.73
2023-07-01T11:14:41.034Z,85.72
2023-07-01T11:15:41.070Z,86.01
2023-07-01T11:16:41.035Z,86.16
2023-07-01T11:17:40.996Z,86.62
2023-07-01T11:18:40.939Z,86.39
2023-07-01T11:19:40.918Z,85.71
2023-07-01T11:20:40.961Z,85.85
2023-07-01T11:21:41.026Z,85.93
2023-07-01T11:22:40.919Z,86.11
2023-07-01T11:23:41.143Z,86.19
2023-07-01T11:24:40.867Z,86.42
2023-07-01T11:25:40.878Z,86.25
2023-07-01T11:26:40.971Z,86.23
2023-07-01T11:27:40.869Z,86.48
2023-07-01T11:28:40.822Z,86.61
2023-07-01T11:29:40.820Z,86.49
2023-07-01T11:30:40.812Z,86.71
2023-07-01T11:31:40.885Z,87.09
2023-07-01T11:32:40.836Z,86.03
2023-07-01T11:33:40.794Z,86.68
2023-07-01T11:34:40.758Z,86.77
2023-07-01T11:35:40.742Z,86.75
2023-07-01T11:36:40.737Z,87.19
2023-07-01T11:37:40.756Z,86.85
2023-07-01T11:38:40.706Z,86.57
2023-07-01T11:39:40.712Z,86.29
2023-07-01T11:40:40.713Z,86.27
2023-07-01T11:41:40.679Z,86.34
2023-07-01T11:42:40.686Z,86.54
2023-07-01T11:43:40.663Z,86.34
2023-07-01T11:44:40.688Z,87.09
2023-07-01T11:45:40.676Z,86.53
2023-07-01T11:46:40.666Z,87.44
2023-07-01T11:47:40.686Z,87.61
2023-07-01T11:48:40.599Z,87.42
2023-07-01T11:49:40.587Z,87.77
2023-07-01T11:50:40.604Z,87.34
2023-07-01T11:51:40.570Z,87.49
2023-07-01T11:52:40.638Z,86.87
2023-07-01T11:53:40.548Z,86.87
2023-07-01T11:54:40.685Z,86.33
2023-07-01T11:55:40.542Z,86.80
2023-07-01T11:56:40.520Z,86.64
2023-07-01T11:57:40.504Z,86.36
2023-07-01T11:58:49.544Z,87.20
2023-07-01T11:59:40.484Z,87.53
2023-07-01T12:00:40.526Z,87.41
2023-07-01T12:01:40.549Z,87.36
2023-07-01T12:02:40.547Z,87.29
2023-07-01T12:03:40.482Z,86.86
2023-07-01T12:04:40.603Z,86.85
2023-07-01T12:05:40.483Z,87.05
2023-07-01T12:06:40.415Z,87.05
2023-07-01T12:07:40.429Z,86.31
2023-07-01T12:08:40.375Z,86.42
2023-07-01T12:09:40.376Z,86.19
2023-07-01T12:10:40.363Z,86.33
2023-07-01T12:11:40.357Z,86.72
2023-07-01T12:12:40.369Z,86.54
2023-07-01T12:13:40.380Z,86.54
2023-07-01T12:14:40.333Z,86.52
2023-07-01T12:15:40.343Z,86.33
2023-07-01T12:16:40.305Z,86.82
2023-07-01T12:17:40.375Z,86.91
2023-07-01T12:18:40.303Z,87.23
2023-07-01T12:19:40.272Z,87.54
2023-07-01T12:20:40.265Z,87.43
2023-07-01T12:21:40.243Z,87.87
2023-07-01T12:22:40.252Z,88.00
2023-07-01T12:23:40.231Z,87.65
2023-07-01T12:24:40.267Z,88.25
2023-07-01T12:25:40.210Z,87.97
2023-07-01T12:26:40.191Z,87.63
2023-07-01T12:27:40.172Z,87.94
2023-07-01T12:28:40.174Z,87.68
2023-07-01T12:29:40.191Z,87.69
2023-07-01T12:30:40.163Z,88.01
2023-07-01T12:31:40.182Z,88.38
2023-07-01T12:32:40.170Z,88.25
2023-07-01T12:33:40.139Z,88.14
2023-07-01T12:34:40.109Z,88.23
2023-07-01T12:35:42.550Z,88.16
2023-07-01T12:36:40.085Z,88.62
2023-07-01T12:37:40.121Z,88.39
2023-07-01T12:38:40.091Z,88.56
2023-07-01T12:39:40.055Z,88.96
2023-07-01T12:40:40.082Z,88.55
2023-07-01T12:41:42.307Z,88.84
2023-07-01T12:42:40.090Z,89.10
2023-07-01T12:43:40.054Z,89.20
2023-07-01T12:44:40.002Z,89.72
2023-07-01T12:45:40.089Z,89.50
2023-07-01T12:46:40.009Z,90.00
2023-07-01T12:47:40.016Z,89.81
2023-07-01T12:48:39.959Z,89.55
2023-07-01T12:49:39.942Z,89.87
2023-07-01T12:50:39.935Z,89.69
2023-07-01T12:51:39.939Z,89.52
2023-07-01T12:52:39.957Z,89.27